Time;durP1;ratioP1;P1;durP2;ratioP2;P2;SDS_P1;SDS_P2;PMS_P1;PMS_P2;Temp;Humidity;BMP_temperature;BMP_pressure;BME280_temperature;BME280_humidity;BME280_pressure;Samples;Min_cycle;Max_cycle;Signal;HPM_P1;HPM_P2
2022/09/14 00:01:52;;;;;;;7.60;6.40;;;21.40;99.90;;;;;;4979860;28;20502;-65
2022/09/14 00:04:18;;;;;;;6.57;5.93;;;21.40;99.90;;;;;;5013890;28;20203;-65
2022/09/14 00:06:45;;;;;;;5.87;5.47;;;21.40;99.90;;;;;;5014361;28;20183;-65
2022/09/14 00:09:21;;;;;;;5.47;4.97;;;21.40;99.90;;;;;;5012882;28;20468;-65
2022/09/14 00:11:47;;;;;;;5.93;5.53;;;21.40;99.90;;;;;;5014367;28;20452;-65
2022/09/14 00:14:13;;;;;;;5.23;4.93;;;21.30;99.90;;;;;;5013362;28;20448;-65
2022/09/14 00:16:41;;;;;;;4.77;4.27;;;21.30;99.90;;;;;;5013284;28;20531;-65
2022/09/14 00:19:20;;;;;;;4.80;4.50;;;21.30;99.90;;;;;;5012578;28;20464;-66
2022/09/14 00:21:50;;;;;;;4.53;4.23;;;21.20;99.90;;;;;;5013248;28;20426;-65
2022/09/14 00:24:16;;;;;;;5.80;5.50;;;21.20;99.90;;;;;;5013087;28;20461;-66
2022/09/14 00:26:42;;;;;;;5.43;5.00;;;21.20;99.90;;;;;;5014012;28;20415;-65
2022/09/14 00:29:09;;;;;;;5.10;4.80;;;21.10;99.90;;;;;;5013410;28;20420;-65
2022/09/14 00:31:36;;;;;;;4.70;4.30;;;21.10;99.90;;;;;;5013165;28;20183;-65
2022/09/14 00:34:04;;;;;;;8.23;3.97;;;21.10;99.90;;;;;;5012493;28;20906;-66
2022/09/14 00:36:31;;;;;;;4.47;3.60;;;21.00;99.90;;;;;;5013860;28;20527;-66
2022/09/14 00:38:59;;;;;;;4.40;3.97;;;21.00;99.90;;;;;;5012861;28;20426;-65
2022/09/14 00:41:31;;;;;;;4.70;4.17;;;21.00;99.90;;;;;;5012913;28;20426;-65
2022/09/14 00:44:06;;;;;;;4.70;4.37;;;21.00;99.90;;;;;;5013687;28;20406;-66
2022/09/14 00:46:38;;;;;;;4.70;4.30;;;21.00;99.90;;;;;;5012459;28;20449;-66
2022/09/14 00:49:26;;;;;;;4.47;4.03;;;21.00;99.90;;;;;;5012511;28;20437;-65
2022/09/14 00:52:20;;;;;;;5.87;3.77;;;21.00;99.90;;;;;;5013389;28;20418;-65
2022/09/14 00:54:56;;;;;;;4.17;3.77;;;21.00;99.90;;;;;;5012136;28;20445;-66
2022/09/14 00:57:24;;;;;;;4.60;4.40;;;21.00;99.90;;;;;;5010001;28;20442;-66
2022/09/14 00:59:51;;;;;;;4.37;4.07;;;21.00;99.90;;;;;;5012913;28;20930;-66
2022/09/14 01:02:19;;;;;;;5.27;4.37;;;21.00;99.90;;;;;;5012020;28;20433;-66
2022/09/14 01:04:45;;;;;;;4.40;4.07;;;21.00;99.90;;;;;;5013109;28;20830;-66
2022/09/14 01:07:38;;;;;;;4.60;4.20;;;21.00;99.90;;;;;;5012440;28;20913;-66
2022/09/14 01:10:19;;;;;;;5.00;4.00;;;21.00;99.90;;;;;;5012526;28;20438;-66
2022/09/14 01:12:50;;;;;;;5.07;4.60;;;21.00;99.90;;;;;;5013554;28;20491;-66
2022/09/14 01:15:38;;;;;;;5.00;4.70;;;21.00;99.90;;;;;;5012108;28;20438;-66
2022/09/14 01:18:20;;;;;;;4.53;4.23;;;21.00;99.90;;;;;;5012980;28;20399;-66
2022/09/14 01:21:22;;;;;;;4.00;3.70;;;20.90;99.90;;;;;;5012279;28;20390;-66
2022/09/14 01:24:00;;;;;;;5.10;4.30;;;21.00;99.90;;;;;;4971466;28;20508;-66
2022/09/14 01:27:09;;;;;;;4.50;3.90;;;20.90;99.90;;;;;;5010608;28;20776;-66
2022/09/14 01:29:50;;;;;;;5.00;4.53;;;20.90;99.90;;;;;;5012103;28;20441;-66
2022/09/14 01:32:44;;;;;;;4.70;3.90;;;20.90;99.90;;;;;;5012464;28;20552;-66
2022/09/14 01:35:22;;;;;;;5.23;3.40;;;20.80;99.90;;;;;;5009363;28;20469;-66
2022/09/14 01:37:55;;;;;;;3.80;3.60;;;20.70;99.90;;;;;;5013080;28;20442;-66
2022/09/14 01:40:34;;;;;;;4.30;4.00;;;20.70;99.90;;;;;;5011620;28;20433;-66
2022/09/14 01:43:18;;;;;;;4.10;3.80;;;20.80;99.90;;;;;;5012842;28;20418;-66
2022/09/14 01:45:51;;;;;;;4.13;3.87;;;20.80;99.90;;;;;;5010951;28;20465;-66
2022/09/14 01:48:20;;;;;;;5.30;4.00;;;20.80;99.90;;;;;;4994820;28;20405;-66
2022/09/14 01:50:51;;;;;;;4.27;3.97;;;20.70;99.90;;;;;;5012751;28;20402;-66
2022/09/14 01:53:36;;;;;;;3.67;3.40;;;20.70;99.90;;;;;;5011390;28;20517;-65
2022/09/14 01:56:23;;;;;;;4.50;3.40;;;20.70;99.90;;;;;;5012838;28;20433;-66
2022/09/14 01:59:04;;;;;;;4.50;4.10;;;20.60;99.90;;;;;;5012233;28;20429;-66
2022/09/14 02:01:36;;;;;;;4.43;4.03;;;20.70;99.90;;;;;;5011132;28;20437;-66
2022/09/14 02:04:07;;;;;;;5.30;4.00;;;20.60;99.90;;;;;;5012336;28;20797;-66
2022/09/14 02:06:40;;;;;;;3.60;3.40;;;20.60;99.90;;;;;;5011503;28;20472;-66
2022/09/14 02:09:09;;;;;;;3.33;3.13;;;20.60;99.90;;;;;;5012574;28;20414;-66
2022/09/14 02:11:35;;;;;;;3.67;3.43;;;20.70;99.90;;;;;;5012252;28;20407;-66
2022/09/14 02:14:01;;;;;;;3.80;3.57;;;20.70;99.90;;;;;;5012571;28;20402;-65
2022/09/14 02:16:27;;;;;;;4.20;3.80;;;20.70;99.90;;;;;;5011856;28;20481;-66
2022/09/14 02:18:53;;;;;;;3.60;3.40;;;20.70;99.90;;;;;;5011546;28;20852;-66
2022/09/14 02:21:25;;;;;;;8.47;3.93;;;20.60;99.90;;;;;;5011863;28;20409;-66
2022/09/14 02:23:51;;;;;;;3.53;3.10;;;20.60;99.90;;;;;;5011546;28;20430;-66
2022/09/14 02:26:18;;;;;;;4.33;3.17;;;20.50;99.80;;;;;;5008632;28;20542;-66
2022/09/14 02:28:45;;;;;;;6.47;3.50;;;20.50;99.90;;;;;;5003109;28;20431;-66
2022/09/14 02:31:20;;;;;;;6.27;4.00;;;20.50;99.90;;;;;;4992306;28;20410;-67
2022/09/14 02:34:06;;;;;;;3.80;3.50;;;20.60;99.90;;;;;;4992953;28;20406;-66
2022/09/14 02:36:55;;;;;;;4.40;4.00;;;20.60;99.90;;;;;;5006771;28;20473;-66
2022/09/14 02:39:37;;;;;;;5.27;4.03;;;20.60;99.90;;;;;;5011503;28;20890;-66
2022/09/14 02:42:24;;;;;;;4.83;3.60;;;20.60;99.90;;;;;;5012423;28;20758;-65
2022/09/14 02:45:24;;;;;;;4.37;3.93;;;20.60;99.90;;;;;;5011287;28;20958;-67
2022/09/14 02:48:12;;;;;;;4.30;4.10;;;20.50;99.90;;;;;;4968582;28;21061;-67
2022/09/14 02:50:46;;;;;;;5.50;3.97;;;20.50;99.90;;;;;;5011269;28;20433;-67
2022/09/14 02:53:25;;;;;;;9.40;6.20;;;20.50;99.90;;;;;;5011642;28;20413;-67
2022/09/14 02:56:01;;;;;;;4.50;4.10;;;20.50;99.90;;;;;;5014956;28;20406;-67
2022/09/14 02:58:38;;;;;;;4.70;4.10;;;20.50;99.90;;;;;;5013829;28;20480;-67
2022/09/14 03:01:06;;;;;;;4.20;3.90;;;20.50;99.90;;;;;;5014433;28;20778;-67
2022/09/14 03:03:32;;;;;;;4.00;3.80;;;20.50;99.90;;;;;;5015325;28;20617;-66
2022/09/14 03:05:58;;;;;;;4.53;4.20;;;20.50;99.90;;;;;;5013866;28;20497;-67
2022/09/14 03:08:25;;;;;;;4.10;3.80;;;20.50;99.90;;;;;;5010605;28;20449;-67
2022/09/14 03:10:51;;;;;;;5.90;4.10;;;20.50;99.90;;;;;;5014391;28;20191;-70
2022/09/14 03:13:17;;;;;;;4.30;4.00;;;20.50;99.90;;;;;;5012978;28;20441;-66
2022/09/14 03:15:42;;;;;;;4.63;4.10;;;20.40;99.90;;;;;;5015495;28;20222;-67
2022/09/14 03:18:08;;;;;;;6.07;4.10;;;20.40;99.90;;;;;;4997632;28;20512;-67
2022/09/14 03:20:34;;;;;;;4.20;3.80;;;20.40;99.90;;;;;;5014641;28;20172;-66
2022/09/14 03:23:01;;;;;;;7.67;4.17;;;20.40;99.90;;;;;;5015152;28;20410;-66
2022/09/14 03:25:27;;;;;;;4.33;3.93;;;20.30;99.90;;;;;;5014106;28;20199;-66
2022/09/14 03:27:55;;;;;;;4.97;4.43;;;20.30;99.90;;;;;;4975444;28;20434;-69
2022/09/14 03:30:22;;;;;;;10.40;7.50;;;20.30;99.90;;;;;;4994851;28;20415;-66
2022/09/14 03:32:48;;;;;;;9.17;5.80;;;20.30;99.90;;;;;;5007189;28;20430;-66
2022/09/14 03:35:14;;;;;;;5.03;4.43;;;20.20;99.90;;;;;;5013237;28;20465;-73
2022/09/14 03:37:41;;;;;;;8.87;5.13;;;20.10;99.90;;;;;;5014139;28;20434;-66
2022/09/14 03:40:09;;;;;;;5.73;5.20;;;20.10;99.90;;;;;;5014651;28;20426;-66
2022/09/14 03:42:35;;;;;;;9.10;5.87;;;20.10;99.90;;;;;;5013959;28;20922;-66
2022/09/14 03:45:01;;;;;;;9.53;8.67;;;20.10;99.90;;;;;;4996882;28;20461;-66
2022/09/14 03:47:27;;;;;;;7.40;5.70;;;20.10;99.90;;;;;;5013228;28;20257;-66
2022/09/14 03:49:53;;;;;;;10.57;9.67;;;20.10;99.90;;;;;;5014782;28;20410;-66
2022/09/14 03:52:19;;;;;;;11.30;5.87;;;20.00;99.90;;;;;;5013806;28;20646;-66
2022/09/14 03:54:45;;;;;;;7.50;6.70;;;20.10;99.90;;;;;;5013607;28;20528;-66
2022/09/14 03:57:10;;;;;;;7.60;5.23;;;20.00;99.90;;;;;;5013537;28;20179;-66
2022/09/14 03:59:36;;;;;;;5.97;5.50;;;20.00;99.90;;;;;;5014046;28;20697;-66
2022/09/14 04:02:02;;;;;;;7.97;4.63;;;20.00;99.90;;;;;;5013462;28;20532;-66
2022/09/14 04:04:28;;;;;;;12.00;7.60;;;19.90;99.90;;;;;;5013924;28;20215;-66
2022/09/14 04:06:54;;;;;;;5.13;4.57;;;19.90;99.90;;;;;;5013250;28;20826;-66
2022/09/14 04:09:20;;;;;;;7.20;5.10;;;20.00;99.90;;;;;;5013739;28;20856;-66
2022/09/14 04:11:46;;;;;;;6.97;6.47;;;19.90;99.90;;;;;;5014183;28;20187;-66
2022/09/14 04:14:12;;;;;;;4.47;4.27;;;19.90;99.90;;;;;;5012388;28;20544;-66
2022/09/14 04:16:39;;;;;;;6.23;5.07;;;19.90;99.90;;;;;;5012634;28;20414;-66
2022/09/14 04:19:05;;;;;;;9.30;7.87;;;19.90;99.90;;;;;;5013204;28;20520;-66
2022/09/14 04:21:32;;;;;;;10.73;5.53;;;19.90;99.90;;;;;;4995942;28;20997;-66
2022/09/14 04:23:58;;;;;;;7.70;5.10;;;19.90;99.90;;;;;;5011124;28;20437;-66
2022/09/14 04:26:28;;;;;;;4.30;3.90;;;19.80;99.90;;;;;;5010607;28;20533;-65
2022/09/14 04:28:57;;;;;;;6.40;5.97;;;19.90;99.90;;;;;;4995290;28;20952;-65
2022/09/14 04:31:24;;;;;;;5.57;5.17;;;19.80;99.90;;;;;;5012534;28;20430;-65
2022/09/14 04:33:50;;;;;;;8.03;5.13;;;19.90;99.90;;;;;;5012739;28;20421;-65
2022/09/14 04:36:18;;;;;;;5.47;5.00;;;19.80;99.90;;;;;;5005020;28;20822;-65
2022/09/14 04:38:44;;;;;;;7.60;6.20;;;19.80;99.90;;;;;;5013922;28;20418;-65
2022/09/14 04:41:15;;;;;;;8.97;6.87;;;19.70;99.90;;;;;;5013680;28;20478;-68
2022/09/14 04:43:42;;;;;;;8.53;5.97;;;19.60;99.90;;;;;;5012322;28;20187;-65
2022/09/14 04:46:14;;;;;;;8.00;7.40;;;19.60;99.90;;;;;;5012557;28;20464;-65
2022/09/14 04:48:41;;;;;;;6.80;6.20;;;19.60;99.90;;;;;;5012317;28;20442;-65
2022/09/14 04:51:09;;;;;;;6.00;4.77;;;19.60;99.90;;;;;;5012843;28;20471;-65
2022/09/14 04:53:36;;;;;;;8.13;6.20;;;19.50;99.90;;;;;;5012737;28;20898;-65
2022/09/14 04:56:08;;;;;;;8.70;6.87;;;19.50;99.90;;;;;;5012341;28;20446;-65
2022/09/14 04:58:38;;;;;;;9.13;6.17;;;19.50;99.90;;;;;;5012463;28;20441;-65
2022/09/14 05:01:09;;;;;;;6.63;4.33;;;19.50;99.90;;;;;;5013446;28;20406;-65
2022/09/14 05:03:39;;;;;;;8.13;7.33;;;19.40;99.90;;;;;;4995609;28;20434;-65
2022/09/14 05:06:17;;;;;;;9.67;6.67;;;19.40;99.90;;;;;;4993810;28;20958;-65
2022/09/14 05:08:43;;;;;;;9.90;8.20;;;19.40;99.90;;;;;;4993174;28;20444;-65
2022/09/14 05:11:12;;;;;;;8.57;6.60;;;19.40;99.90;;;;;;4993968;28;20596;-65
2022/09/14 05:13:38;;;;;;;7.37;5.50;;;19.40;99.90;;;;;;4990961;28;20410;-67
2022/09/14 05:16:19;;;;;;;7.40;5.90;;;19.40;99.90;;;;;;4993601;28;20490;-66
2022/09/14 05:18:45;;;;;;;5.20;4.70;;;19.30;99.90;;;;;;4993595;28;20244;-67
2022/09/14 05:21:13;;;;;;;5.97;5.40;;;19.40;99.90;;;;;;5013050;28;20480;-66
2022/09/14 05:23:39;;;;;;;5.43;4.93;;;19.40;99.90;;;;;;5012254;28;20493;-66
2022/09/14 05:26:05;;;;;;;9.87;8.87;;;19.30;99.90;;;;;;5011616;28;20561;-67
2022/09/14 05:28:32;;;;;;;5.63;5.10;;;19.20;99.90;;;;;;5012246;28;20852;-66
2022/09/14 05:30:58;;;;;;;4.37;3.97;;;19.20;99.90;;;;;;5013068;28;20414;-66
2022/09/14 05:33:24;;;;;;;7.00;6.40;;;19.20;99.90;;;;;;5012147;28;20479;-67
2022/09/14 05:35:50;;;;;;;7.33;6.83;;;19.20;99.90;;;;;;5011623;28;20470;-66
2022/09/14 05:38:16;;;;;;;5.00;4.33;;;19.20;99.90;;;;;;5013007;28;20417;-66
2022/09/14 05:40:41;;;;;;;7.53;4.57;;;19.20;99.90;;;;;;5011495;28;20446;-66
2022/09/14 05:43:08;;;;;;;9.40;8.43;;;19.20;99.90;;;;;;5012480;28;20221;-66
2022/09/14 05:45:34;;;;;;;6.23;5.00;;;19.20;99.90;;;;;;5012191;28;20462;-67
2022/09/14 05:48:03;;;;;;;4.40;4.00;;;19.20;99.90;;;;;;5011847;28;20191;-66
2022/09/14 05:50:32;;;;;;;5.57;4.07;;;19.30;99.90;;;;;;5012129;28;20183;-66
2022/09/14 05:52:59;;;;;;;6.40;3.83;;;19.20;99.90;;;;;;5012537;28;20433;-66
2022/09/14 05:55:25;;;;;;;5.17;4.70;;;19.20;99.90;;;;;;5012006;28;20480;-66
2022/09/14 05:57:51;;;;;;;4.20;3.80;;;19.20;99.90;;;;;;5000726;28;20431;-66
2022/09/14 06:00:17;;;;;;;8.57;3.90;;;19.20;99.90;;;;;;4993221;28;20403;-66
2022/09/14 06:02:47;;;;;;;6.67;5.80;;;19.30;99.90;;;;;;5006751;28;20521;-66
2022/09/14 06:05:14;;;;;;;5.07;4.67;;;19.30;99.90;;;;;;5012764;28;20834;-66
2022/09/14 06:07:39;;;;;;;5.40;4.90;;;19.30;99.90;;;;;;5012013;28;20441;-66
2022/09/14 06:10:06;;;;;;;5.40;4.90;;;19.30;99.90;;;;;;5011703;28;20909;-65
2022/09/14 06:12:32;;;;;;;7.27;5.07;;;19.30;99.90;;;;;;4970626;28;20407;-65
2022/09/14 06:14:57;;;;;;;7.13;6.13;;;19.30;99.90;;;;;;4971324;28;20754;-66
2022/09/14 06:17:23;;;;;;;7.03;5.90;;;19.30;99.90;;;;;;4971235;28;20577;-73
2022/09/14 06:19:49;;;;;;;6.40;5.80;;;19.30;99.90;;;;;;4970558;28;20198;-66
2022/09/14 06:22:15;;;;;;;7.03;5.37;;;19.20;99.90;;;;;;4971239;28;20417;-66
2022/09/14 06:24:41;;;;;;;6.07;5.57;;;19.30;99.90;;;;;;4967970;28;20298;-66
2022/09/14 06:27:07;;;;;;;7.57;6.97;;;19.20;99.90;;;;;;4969626;28;20555;-66
2022/09/14 06:29:34;;;;;;;7.50;6.03;;;19.20;99.90;;;;;;4971298;28;20356;-66
2022/09/14 06:32:00;;;;;;;6.83;5.63;;;19.20;99.90;;;;;;4956888;28;20430;-66
2022/09/14 06:34:26;;;;;;;7.00;6.30;;;19.20;99.90;;;;;;4974129;28;20424;-67
2022/09/14 06:36:51;;;;;;;8.13;5.73;;;19.20;99.90;;;;;;4973055;28;20247;-66
2022/09/14 06:39:17;;;;;;;6.43;5.67;;;19.10;99.90;;;;;;4974618;28;20453;-66
2022/09/14 06:41:43;;;;;;;8.67;7.93;;;19.20;99.90;;;;;;4971061;28;20608;-68
2022/09/14 06:44:09;;;;;;;6.47;5.97;;;19.20;99.90;;;;;;5004528;28;20245;-69
2022/09/14 06:46:35;;;;;;;6.77;6.00;;;19.20;99.90;;;;;;5015365;28;20588;-66
2022/09/14 06:49:06;;;;;;;7.67;6.70;;;19.20;99.90;;;;;;5014844;28;20847;-66
2022/09/14 06:51:35;;;;;;;6.70;6.03;;;19.20;99.90;;;;;;4980286;28;20434;-66
2022/09/14 06:54:02;;;;;;;7.47;6.77;;;19.00;99.90;;;;;;5013564;28;20893;-66
2022/09/14 06:56:31;;;;;;;8.83;7.93;;;19.00;99.90;;;;;;5012512;28;20469;-72
2022/09/14 06:58:57;;;;;;;9.40;7.80;;;19.00;99.90;;;;;;5014146;28;20445;-66
2022/09/14 07:01:24;;;;;;;8.33;7.53;;;19.00;99.90;;;;;;5013234;28;20865;-66
2022/09/14 07:03:51;;;;;;;7.37;6.37;;;19.00;99.90;;;;;;5012677;28;20426;-66
2022/09/14 07:06:24;;;;;;;8.20;5.80;;;19.00;99.90;;;;;;5002180;28;20982;-66
2022/09/14 07:08:50;;;;;;;7.50;6.70;;;19.00;99.90;;;;;;4997921;28;20434;-67
2022/09/14 07:11:20;;;;;;;8.37;7.67;;;19.00;99.90;;;;;;4999487;28;20435;-64
2022/09/14 07:13:46;;;;;;;8.70;7.80;;;19.20;99.90;;;;;;4995303;28;20498;-64
2022/09/14 07:16:12;;;;;;;10.80;5.77;;;19.80;99.90;;;;;;4995830;28;20422;-64
2022/09/14 07:18:38;;;;;;;5.13;4.63;;;20.20;99.90;;;;;;5006424;28;20433;-62
2022/09/14 07:21:06;;;;;;;5.20;4.80;;;20.40;99.90;;;;;;5012952;28;20926;-62
2022/09/14 07:23:33;;;;;;;6.20;5.67;;;20.30;99.90;;;;;;5014131;28;20441;-63
2022/09/14 07:26:14;;;;;;;9.80;7.60;;;20.10;99.90;;;;;;5014856;28;20980;-62
2022/09/14 07:28:41;;;;;;;7.87;6.23;;;19.90;99.90;;;;;;5014586;28;20394;-62
2022/09/14 07:31:20;;;;;;;5.57;5.20;;;19.80;99.90;;;;;;4997780;28;20414;-62
2022/09/14 07:33:46;;;;;;;5.73;5.13;;;19.60;99.90;;;;;;5014559;28;20753;-62
2022/09/14 07:36:13;;;;;;;5.33;5.03;;;19.50;99.90;;;;;;5014729;28;20497;-62
2022/09/14 07:38:39;;;;;;;6.57;4.97;;;19.40;99.90;;;;;;5009511;28;20438;-62
2022/09/14 07:41:05;;;;;;;9.03;5.20;;;19.30;99.90;;;;;;5013604;28;20437;-62
2022/09/14 07:43:32;;;;;;;4.90;4.43;;;19.10;99.90;;;;;;5014235;28;20821;-62
2022/09/14 07:46:02;;;;;;;5.30;4.90;;;19.00;99.90;;;;;;5014763;28;20561;-62
2022/09/14 07:48:28;;;;;;;5.27;4.77;;;18.90;99.90;;;;;;5014569;28;20773;-62
2022/09/14 07:51:05;;;;;;;6.23;4.57;;;18.70;99.90;;;;;;5014718;28;20409;-62
2022/09/14 07:53:34;;;;;;;5.47;4.93;;;18.60;99.90;;;;;;5013341;28;20462;-62
2022/09/14 07:56:00;;;;;;;6.17;5.53;;;18.50;99.90;;;;;;5014357;28;20426;-62
2022/09/14 07:58:29;;;;;;;6.57;5.90;;;18.40;99.90;;;;;;5005154;28;20434;-62
2022/09/14 08:00:59;;;;;;;7.77;6.37;;;18.40;99.90;;;;;;5014526;28;20425;-62
2022/09/14 08:03:25;;;;;;;9.17;8.47;;;18.30;99.90;;;;;;5014509;28;20418;-62
2022/09/14 08:06:02;;;;;;;6.00;5.40;;;18.30;99.90;;;;;;5013976;28;20458;-62
2022/09/14 08:08:33;;;;;;;7.27;6.70;;;18.30;99.90;;;;;;5013827;28;20488;-62
2022/09/14 08:11:13;;;;;;;5.33;4.90;;;18.30;99.90;;;;;;5014362;28;20441;-62
2022/09/14 08:13:45;;;;;;;7.07;6.47;;;18.30;99.90;;;;;;5012872;28;20520;-62
2022/09/14 08:16:11;;;;;;;6.17;5.70;;;18.20;99.90;;;;;;5011038;28;20987;-62
2022/09/14 08:18:37;;;;;;;5.30;4.80;;;18.20;99.90;;;;;;5011882;28;20437;-62
2022/09/14 08:21:15;;;;;;;6.83;6.20;;;18.20;99.90;;;;;;5009177;28;20484;-62
2022/09/14 08:23:42;;;;;;;7.43;6.70;;;18.10;99.90;;;;;;5013578;28;20456;-62
2022/09/14 08:26:13;;;;;;;7.10;6.60;;;18.20;99.90;;;;;;5014012;28;20482;-63
2022/09/14 08:28:40;;;;;;;6.70;4.80;;;18.20;99.90;;;;;;5012363;28;20453;-63
2022/09/14 08:31:08;;;;;;;9.10;8.50;;;18.20;99.90;;;;;;5010915;28;20434;-62
2022/09/14 08:33:38;;;;;;;5.57;5.07;;;18.20;99.90;;;;;;4993409;28;20891;-63
2022/09/14 08:36:06;;;;;;;8.77;8.20;;;18.20;99.90;;;;;;5005146;28;20552;-62
2022/09/14 08:38:32;;;;;;;7.37;6.77;;;18.20;99.90;;;;;;5013273;28;20418;-69
2022/09/14 08:41:04;;;;;;;6.20;5.70;;;18.20;99.90;;;;;;5013974;28;20830;-62
2022/09/14 08:43:31;;;;;;;9.90;9.00;;;18.10;99.90;;;;;;5013870;28;20164;-62
2022/09/14 08:46:02;;;;;;;7.50;6.37;;;18.10;99.90;;;;;;5013771;28;20585;-62
2022/09/14 08:48:35;;;;;;;6.90;6.40;;;18.10;99.90;;;;;;5013833;28;20429;-62
2022/09/14 08:51:04;;;;;;;7.47;6.87;;;18.10;99.90;;;;;;5013817;28;20540;-62
2022/09/14 08:53:32;;;;;;;9.40;6.80;;;18.10;99.90;;;;;;5012967;28;20410;-62
2022/09/14 08:56:00;;;;;;;7.10;6.50;;;18.10;99.90;;;;;;5012934;28;20448;-62
2022/09/14 08:58:50;;;;;;;6.53;5.97;;;18.10;99.90;;;;;;5012083;28;20434;-62
2022/09/14 09:01:32;;;;;;;7.40;6.70;;;18.10;99.90;;;;;;5009127;28;20438;-62
2022/09/14 09:04:16;;;;;;;8.27;7.57;;;18.20;99.90;;;;;;4946605;29;20460;-62
2022/09/14 09:06:59;;;;;;;7.50;6.90;;;18.10;99.90;;;;;;4952223;29;20461;-62
2022/09/14 09:09:43;;;;;;;7.60;7.00;;;18.20;99.90;;;;;;4952778;29;20447;-62
2022/09/14 09:12:14;;;;;;;8.30;6.30;;;18.20;99.90;;;;;;4952708;29;20417;-62
2022/09/14 09:14:46;;;;;;;9.80;9.00;;;18.10;99.90;;;;;;4952034;29;20913;-62
2022/09/14 09:17:39;;;;;;;6.30;5.90;;;18.20;99.90;;;;;;4952717;29;20420;-62
2022/09/14 09:20:14;;;;;;;7.93;7.40;;;18.20;99.90;;;;;;4902855;29;20421;-62
2022/09/14 09:22:53;;;;;;;6.73;6.17;;;18.20;99.90;;;;;;4951954;29;20431;-62
2022/09/14 09:25:22;;;;;;;7.50;6.80;;;18.20;99.90;;;;;;4952563;29;20503;-63
2022/09/14 09:27:49;;;;;;;6.17;5.67;;;18.20;99.90;;;;;;4950923;29;20433;-63
2022/09/14 09:30:16;;;;;;;6.30;5.63;;;18.10;99.90;;;;;;4952449;29;20460;-62
2022/09/14 09:32:42;;;;;;;7.20;6.60;;;18.10;99.90;;;;;;4939416;29;20515;-61
2022/09/14 09:35:18;;;;;;;6.20;5.80;;;18.10;99.90;;;;;;4967221;28;20838;-63
2022/09/14 09:37:44;;;;;;;5.30;4.90;;;18.00;99.90;;;;;;4992858;28;20407;-64
2022/09/14 09:40:22;;;;;;;7.10;6.50;;;18.00;99.90;;;;;;4993317;28;20546;-64
2022/09/14 09:43:05;;;;;;;4.87;4.50;;;18.00;99.90;;;;;;4992736;28;20171;-64
2022/09/14 09:46:05;;;;;;;5.73;5.20;;;17.90;99.90;;;;;;4993174;28;20469;-63
2022/09/14 09:48:37;;;;;;;6.57;3.77;;;17.90;99.90;;;;;;4961050;28;20497;-63
2022/09/14 09:51:04;;;;;;;4.87;4.47;;;17.80;99.90;;;;;;4993188;28;20426;-63
2022/09/14 09:53:31;;;;;;;4.60;4.20;;;17.60;99.90;;;;;;4993194;28;20403;-63
2022/09/14 09:55:57;;;;;;;4.70;4.23;;;17.70;99.90;;;;;;4992603;28;20414;-63
2022/09/14 09:58:38;;;;;;;3.80;3.50;;;17.70;99.90;;;;;;5004480;28;20492;-63
2022/09/14 10:01:07;;;;;;;5.10;4.60;;;17.50;99.90;;;;;;5012746;28;20178;-63
2022/09/14 10:03:39;;;;;;;4.13;3.80;;;17.50;99.90;;;;;;4996081;28;20417;-63
2022/09/14 10:06:10;;;;;;;4.97;3.60;;;17.50;99.90;;;;;;5016842;28;20503;-63
2022/09/14 10:08:45;;;;;;;5.53;5.23;;;17.50;99.90;;;;;;5016760;28;20566;-63
2022/09/14 10:11:36;;;;;;;5.37;5.07;;;17.60;99.90;;;;;;5016827;28;20389;-63
2022/09/14 10:14:04;;;;;;;4.63;4.43;;;17.60;99.90;;;;;;5015713;28;20397;-63
2022/09/14 10:16:36;;;;;;;3.93;3.63;;;17.60;99.90;;;;;;5016513;28;20479;-63
2022/09/14 10:19:03;;;;;;;6.00;4.70;;;17.60;99.90;;;;;;4996956;28;20437;-63
2022/09/14 10:21:30;;;;;;;4.30;4.00;;;17.60;99.90;;;;;;4996582;28;20425;-63
2022/09/14 10:24:22;;;;;;;3.73;3.43;;;17.60;99.90;;;;;;4974448;28;20404;-63
2022/09/14 10:26:47;;;;;;;5.57;5.07;;;17.60;99.90;;;;;;4972509;28;20458;-63
2022/09/14 10:29:36;;;;;;;5.00;4.70;;;17.60;99.90;;;;;;4975183;28;20808;-63
2022/09/14 10:32:22;;;;;;;7.70;5.60;;;17.60;99.90;;;;;;4974312;28;20301;-63
2022/09/14 10:34:50;;;;;;;5.00;4.17;;;17.70;99.90;;;;;;4974094;28;20928;-63
2022/09/14 10:37:46;;;;;;;5.07;4.67;;;17.70;99.90;;;;;;4969981;28;20468;-63
2022/09/14 10:40:19;;;;;;;4.90;4.50;;;17.70;99.90;;;;;;4955692;29;20492;-63
2022/09/14 10:42:50;;;;;;;5.10;4.80;;;17.60;99.90;;;;;;4954779;29;20401;-63
2022/09/14 10:45:32;;;;;;;5.13;4.63;;;17.70;99.90;;;;;;4955415;29;20472;-63
2022/09/14 10:48:31;;;;;;;5.80;5.20;;;17.70;99.90;;;;;;4954668;29;20409;-63
2022/09/14 10:51:01;;;;;;;7.27;6.63;;;17.70;99.90;;;;;;4954613;29;20512;-63
2022/09/14 10:53:35;;;;;;;8.60;7.90;;;17.70;99.90;;;;;;4955452;29;20420;-63
2022/09/14 10:56:04;;;;;;;5.87;5.30;;;17.70;99.90;;;;;;4993406;28;20421;-63
2022/09/14 10:59:07;;;;;;;6.10;5.60;;;17.70;99.90;;;;;;4996129;28;20922;-64
2022/09/14 11:01:54;;;;;;;6.90;6.40;;;17.70;99.90;;;;;;4995988;28;20391;-63
2022/09/14 11:04:55;;;;;;;5.63;5.20;;;17.60;99.90;;;;;;4995983;28;20419;-63
2022/09/14 11:07:42;;;;;;;4.73;4.33;;;17.60;99.90;;;;;;4999469;28;20440;-63
2022/09/14 11:10:17;;;;;;;6.10;5.70;;;17.60;99.90;;;;;;5015582;28;20402;-63
2022/09/14 11:13:20;;;;;;;5.10;4.70;;;17.60;99.90;;;;;;5014867;28;20390;-63
2022/09/14 11:16:13;;;;;;;5.90;5.40;;;17.70;99.90;;;;;;4964591;28;20567;-63
2022/09/14 11:19:00;;;;;;;6.27;5.53;;;17.60;99.90;;;;;;5015687;28;20433;-63
2022/09/14 11:22:00;;;;;;;7.40;6.20;;;17.70;99.90;;;;;;5015144;28;20492;-63
2022/09/14 11:24:34;;;;;;;6.80;6.30;;;17.70;99.90;;;;;;5015115;28;20410;-63
2022/09/14 11:27:03;;;;;;;5.40;5.10;;;17.70;99.90;;;;;;5014611;28;20401;-63
2022/09/14 11:29:44;;;;;;;4.13;3.87;;;17.70;99.90;;;;;;5015125;28;20433;-63
2022/09/14 11:32:18;;;;;;;4.17;3.97;;;17.70;99.90;;;;;;5015061;28;20429;-63
2022/09/14 11:34:56;;;;;;;3.87;3.67;;;17.70;99.90;;;;;;4997309;28;20426;-64
2022/09/14 11:37:59;;;;;;;4.13;3.83;;;17.70;99.90;;;;;;4994544;28;20454;-63
2022/09/14 11:40:42;;;;;;;3.50;3.40;;;17.70;99.90;;;;;;4981909;28;20450;-63
2022/09/14 11:43:31;;;;;;;3.60;3.30;;;17.70;99.90;;;;;;4975741;28;20519;-63
2022/09/14 11:46:10;;;;;;;3.53;3.33;;;17.60;99.90;;;;;;4934361;29;20469;-63
2022/09/14 11:49:00;;;;;;;4.10;3.90;;;17.60;99.90;;;;;;4878514;29;20447;-63
2022/09/14 11:51:40;;;;;;;3.53;3.23;;;17.70;99.90;;;;;;4878575;29;20423;-62
2022/09/14 11:54:17;;;;;;;3.57;3.30;;;17.70;99.90;;;;;;4877909;29;20460;-63
2022/09/14 11:56:52;;;;;;;4.80;4.40;;;17.60;99.90;;;;;;4878429;29;20495;-62
2022/09/14 11:59:33;;;;;;;4.50;4.03;;;17.70;99.90;;;;;;4878658;29;20494;-63
2022/09/14 12:02:22;;;;;;;4.60;4.20;;;17.70;99.90;;;;;;4877655;29;20496;-63
2022/09/14 12:05:09;;;;;;;4.67;4.10;;;17.60;99.90;;;;;;4877118;29;21034;-63
2022/09/14 12:07:46;;;;;;;6.87;6.17;;;17.70;99.90;;;;;;4878374;29;20476;-62
2022/09/14 12:10:15;;;;;;;4.77;4.47;;;17.60;99.90;;;;;;4878356;29;20415;-63
2022/09/14 12:12:48;;;;;;;5.13;4.63;;;17.60;99.90;;;;;;4878002;29;20515;-62
2022/09/14 12:15:25;;;;;;;4.50;4.10;;;17.70;99.90;;;;;;4878204;29;20427;-62
2022/09/14 12:18:03;;;;;;;5.03;4.63;;;17.70;99.90;;;;;;4910192;29;20478;-62
2022/09/14 12:20:41;;;;;;;4.73;4.43;;;17.80;99.90;;;;;;4966862;28;20422;-62
2022/09/14 12:23:16;;;;;;;4.50;4.20;;;17.80;99.90;;;;;;4974598;28;20404;-63
2022/09/14 12:26:06;;;;;;;10.27;5.50;;;17.80;99.90;;;;;;4975003;28;20524;-63
2022/09/14 12:28:37;;;;;;;4.00;3.73;;;17.80;99.90;;;;;;4974292;28;20396;-62
2022/09/14 12:31:03;;;;;;;4.20;3.90;;;17.80;99.90;;;;;;4974057;28;20393;-63
2022/09/14 12:33:31;;;;;;;6.70;6.30;;;17.90;99.90;;;;;;4974682;28;20427;-62
2022/09/14 12:36:31;;;;;;;4.43;4.13;;;17.90;99.90;;;;;;4983800;28;20227;-63
2022/09/14 12:38:56;;;;;;;4.63;4.33;;;18.00;99.90;;;;;;4979103;28;20993;-63
2022/09/14 12:41:23;;;;;;;4.33;4.10;;;17.90;99.90;;;;;;5008475;28;20517;-62
2022/09/14 12:43:48;;;;;;;5.23;4.83;;;18.00;99.90;;;;;;4995632;28;20817;-62
2022/09/14 12:46:20;;;;;;;5.63;4.80;;;17.90;99.90;;;;;;5013402;28;20441;-62
2022/09/14 12:48:49;;;;;;;5.07;4.67;;;17.90;99.90;;;;;;5013738;28;20175;-62
2022/09/14 12:51:28;;;;;;;8.10;6.33;;;17.80;99.90;;;;;;5013717;28;20429;-63
2022/09/14 12:54:02;;;;;;;5.07;4.67;;;17.90;99.90;;;;;;5013108;28;20520;-63
2022/09/14 12:56:45;;;;;;;5.30;4.80;;;17.90;99.90;;;;;;5013585;28;20414;-63
2022/09/14 12:59:35;;;;;;;5.47;4.97;;;18.00;99.90;;;;;;5010829;28;20434;-63
2022/09/14 13:02:18;;;;;;;4.83;4.43;;;18.00;99.90;;;;;;5012886;28;20457;-62
2022/09/14 13:04:46;;;;;;;5.10;4.70;;;18.00;99.90;;;;;;5013585;28;20466;-63
2022/09/14 13:07:17;;;;;;;4.33;4.03;;;18.00;99.90;;;;;;5012846;28;20452;-62
2022/09/14 13:09:49;;;;;;;3.93;3.73;;;18.00;99.90;;;;;;4971914;28;20512;-63
2022/09/14 13:12:26;;;;;;;6.17;5.07;;;17.90;99.90;;;;;;4972212;28;20532;-63
2022/09/14 13:14:55;;;;;;;4.67;4.37;;;17.90;99.90;;;;;;4971673;28;20419;-63